sensor_id;sensor_type;location;lat;lon;timestamp;pressure;altitude;pressure_sealevel;temperature;humidity
70027;BME280;57506;50.092;15.804;2022-07-23T00:00:09;99144.53;;;16.67;97.58
70027;BME280;57506;50.092;15.804;2022-07-23T00:02:35;99136.31;;;16.55;97.02
70027;BME280;57506;50.092;15.804;2022-07-23T00:05:01;99140.56;;;16.51;96.93
70027;BME280;57506;50.092;15.804;2022-07-23T00:07:27;99141.13;;;16.41;96.98
70027;BME280;57506;50.092;15.804;2022-07-23T00:09:53;99132.25;;;16.34;97.35
70027;BME280;57506;50.092;15.804;2022-07-23T00:12:18;99144.22;;;16.45;95.23
70027;BME280;57506;50.092;15.804;2022-07-23T00:14:44;99129.34;;;16.59;94.90
70027;BME280;57506;50.092;15.804;2022-07-23T00:17:10;99121.09;;;16.89;95.89
70027;BME280;57506;50.092;15.804;2022-07-23T00:19:35;99133.31;;;16.98;95.76
70027;BME280;57506;50.092;15.804;2022-07-23T00:22:01;99129.41;;;16.83;95.24
70027;BME280;57506;50.092;15.804;2022-07-23T00:24:26;99136.13;;;16.68;95.77
70027;BME280;57506;50.092;15.804;2022-07-23T00:26:52;99135.59;;;16.60;95.97
70027;BME280;57506;50.092;15.804;2022-07-23T00:29:17;99131.19;;;17.00;99.57
70027;BME280;57506;50.092;15.804;2022-07-23T00:31:43;99126.44;;;17.19;97.56
70027;BME280;57506;50.092;15.804;2022-07-23T00:34:09;99123.50;;;17.21;96.85
70027;BME280;57506;50.092;15.804;2022-07-23T00:36:34;99139.69;;;17.16;96.29
70027;BME280;57506;50.092;15.804;2022-07-23T00:39:00;99142.53;;;16.97;95.78
70027;BME280;57506;50.092;15.804;2022-07-23T00:41:25;99138.84;;;16.80;96.34
70027;BME280;57506;50.092;15.804;2022-07-23T00:43:51;99132.59;;;16.68;96.02
70027;BME280;57506;50.092;15.804;2022-07-23T00:46:20;99140.44;;;16.58;96.84
70027;BME280;57506;50.092;15.804;2022-07-23T00:48:46;99132.28;;;16.46;97.49
70027;BME280;57506;50.092;15.804;2022-07-23T00:51:12;99116.53;;;16.36;97.16
70027;BME280;57506;50.092;15.804;2022-07-23T00:53:37;99118.06;;;16.44;98.71
70027;BME280;57506;50.092;15.804;2022-07-23T00:56:03;99115.78;;;16.71;100.00
70027;BME280;57506;50.092;15.804;2022-07-23T00:58:29;99120.88;;;16.79;99.94
70027;BME280;57506;50.092;15.804;2022-07-23T01:00:54;99124.78;;;16.83;97.80
70027;BME280;57506;50.092;15.804;2022-07-23T01:03:20;99121.94;;;16.78;97.26
70027;BME280;57506;50.092;15.804;2022-07-23T01:05:45;99123.06;;;16.59;97.03
70027;BME280;57506;50.092;15.804;2022-07-23T01:08:11;99120.84;;;16.56;98.25
70027;BME280;57506;50.092;15.804;2022-07-23T01:10:37;99114.53;;;16.43;99.00
70027;BME280;57506;50.092;15.804;2022-07-23T01:13:06;99121.00;;;16.42;99.92
70027;BME280;57506;50.092;15.804;2022-07-23T01:15:34;99106.97;;;16.45;100.00
70027;BME280;57506;50.092;15.804;2022-07-23T01:18:00;99098.94;;;16.51;99.29
70027;BME280;57506;50.092;15.804;2022-07-23T01:20:26;99099.41;;;16.48;99.22
70027;BME280;57506;50.092;15.804;2022-07-23T01:22:53;99107.56;;;16.48;97.76
70027;BME280;57506;50.092;15.804;2022-07-23T01:25:19;99099.53;;;16.53;98.48
70027;BME280;57506;50.092;15.804;2022-07-23T01:27:45;99091.97;;;16.55;98.56
70027;BME280;57506;50.092;15.804;2022-07-23T01:30:11;99093.63;;;16.56;97.22
70027;BME280;57506;50.092;15.804;2022-07-23T01:32:36;99095.03;;;16.58;98.04
70027;BME280;57506;50.092;15.804;2022-07-23T01:35:02;99091.00;;;16.61;97.39
70027;BME280;57506;50.092;15.804;2022-07-23T01:37:28;99085.56;;;16.61;98.52
70027;BME280;57506;50.092;15.804;2022-07-23T01:39:53;99085.13;;;16.75;97.53
70027;BME280;57506;50.092;15.804;2022-07-23T01:42:19;99084.66;;;16.90;96.73
70027;BME280;57506;50.092;15.804;2022-07-23T01:44:45;99082.53;;;16.92;96.18
70027;BME280;57506;50.092;15.804;2022-07-23T01:47:10;99082.06;;;16.95;96.26
70027;BME280;57506;50.092;15.804;2022-07-23T01:49:36;99078.97;;;16.92;96.35
70027;BME280;57506;50.092;15.804;2022-07-23T01:52:02;99075.66;;;16.90;96.03
70027;BME280;57506;50.092;15.804;2022-07-23T01:54:32;99069.75;;;16.93;98.52
70027;BME280;57506;50.092;15.804;2022-07-23T01:56:59;99060.75;;;17.04;100.00
70027;BME280;57506;50.092;15.804;2022-07-23T01:59:26;99069.97;;;17.14;99.49
70027;BME280;57506;50.092;15.804;2022-07-23T02:01:52;99071.03;;;17.13;98.60
70027;BME280;57506;50.092;15.804;2022-07-23T02:04:19;99067.56;;;17.30;98.56
70027;BME280;57506;50.092;15.804;2022-07-23T02:06:45;99065.56;;;17.37;98.09
70027;BME280;57506;50.092;15.804;2022-07-23T02:09:11;99068.47;;;17.47;97.26
70027;BME280;57506;50.092;15.804;2022-07-23T02:11:37;99065.97;;;17.45;97.09
70027;BME280;57506;50.092;15.804;2022-07-23T02:14:03;99072.38;;;17.51;97.48
70027;BME280;57506;50.092;15.804;2022-07-23T02:16:29;99082.28;;;17.57;97.84
70027;BME280;57506;50.092;15.804;2022-07-23T02:18:54;99069.00;;;17.61;97.02
70027;BME280;57506;50.092;15.804;2022-07-23T02:21:20;99065.22;;;17.62;96.66
70027;BME280;57506;50.092;15.804;2022-07-23T02:23:45;99067.94;;;17.62;96.85
70027;BME280;57506;50.092;15.804;2022-07-23T02:26:11;99086.09;;;17.56;97.73
70027;BME280;57506;50.092;15.804;2022-07-23T02:28:37;99083.75;;;17.48;96.99
70027;BME280;57506;50.092;15.804;2022-07-23T02:31:02;99074.28;;;17.39;98.25
70027;BME280;57506;50.092;15.804;2022-07-23T02:33:29;99071.78;;;17.37;98.08
70027;BME280;57506;50.092;15.804;2022-07-23T02:35:54;99076.69;;;17.35;99.68
70027;BME280;57506;50.092;15.804;2022-07-23T02:38:20;99085.69;;;17.36;99.57
70027;BME280;57506;50.092;15.804;2022-07-23T02:40:45;99077.88;;;17.28;100.00
70027;BME280;57506;50.092;15.804;2022-07-23T02:43:11;99064.63;;;17.20;100.00
70027;BME280;57506;50.092;15.804;2022-07-23T02:45:36;99075.75;;;17.30;100.00
70027;BME280;57506;50.092;15.804;2022-07-23T02:48:02;99076.69;;;17.24;100.00
70027;BME280;57506;50.092;15.804;2022-07-23T02:50:28;99067.72;;;17.11;100.00
70027;BME280;57506;50.092;15.804;2022-07-23T02:52:53;99065.59;;;17.02;100.00
70027;BME280;57506;50.092;15.804;2022-07-23T02:55:19;99060.41;;;17.00;100.00
70027;BME280;57506;50.092;15.804;2022-07-23T02:57:44;99077.56;;;17.01;100.00
70027;BME280;57506;50.092;15.804;2022-07-23T03:00:10;99075.06;;;16.99;100.00
70027;BME280;57506;50.092;15.804;2022-07-23T03:02:36;99069.28;;;16.96;100.00
70027;BME280;57506;50.092;15.804;2022-07-23T03:05:02;99071.97;;;17.07;100.00
70027;BME280;57506;50.092;15.804;2022-07-23T03:07:28;99068.66;;;17.05;100.00
70027;BME280;57506;50.092;15.804;2022-07-23T03:09:53;99079.78;;;17.16;98.59
70027;BME280;57506;50.092;15.804;2022-07-23T03:12:19;99078.59;;;17.23;99.77
70027;BME280;57506;50.092;15.804;2022-07-23T03:14:44;99066.50;;;17.31;98.35
70027;BME280;57506;50.092;15.804;2022-07-23T03:17:10;99073.44;;;17.38;98.27
70027;BME280;57506;50.092;15.804;2022-07-23T03:19:35;99070.50;;;17.40;97.70
70027;BME280;57506;50.092;15.804;2022-07-23T03:22:02;99067.53;;;17.41;97.69
70027;BME280;57506;50.092;15.804;2022-07-23T03:24:28;99060.91;;;17.37;97.40
70027;BME280;57506;50.092;15.804;2022-07-23T03:27:14;99069.91;;;17.38;97.64
70027;BME280;57506;50.092;15.804;2022-07-23T03:29:40;99054.53;;;17.32;98.38
70027;BME280;57506;50.092;15.804;2022-07-23T03:32:05;99054.66;;;17.25;98.90
70027;BME280;57506;50.092;15.804;2022-07-23T03:34:31;99055.41;;;17.21;99.37
70027;BME280;57506;50.092;15.804;2022-07-23T03:36:57;99051.25;;;17.18;98.43
70027;BME280;57506;50.092;15.804;2022-07-23T03:39:22;99049.44;;;17.24;98.40
70027;BME280;57506;50.092;15.804;2022-07-23T03:41:48;99047.44;;;17.31;97.62
70027;BME280;57506;50.092;15.804;2022-07-23T03:44:13;99060.06;;;17.48;96.44
70027;BME280;57506;50.092;15.804;2022-07-23T03:46:39;99046.50;;;17.54;96.47
70027;BME280;57506;50.092;15.804;2022-07-23T03:49:04;99060.97;;;17.66;95.05
70027;BME280;57506;50.092;15.804;2022-07-23T03:51:30;99040.69;;;17.62;94.89
70027;BME280;57506;50.092;15.804;2022-07-23T03:53:55;99048.25;;;17.71;94.21
70027;BME280;57506;50.092;15.804;2022-07-23T03:56:21;99052.63;;;17.72;95.11
70027;BME280;57506;50.092;15.804;2022-07-23T03:58:47;99055.34;;;17.84;95.06
70027;BME280;57506;50.092;15.804;2022-07-23T04:01:13;99042.53;;;17.85;96.25
70027;BME280;57506;50.092;15.804;2022-07-23T04:03:38;99047.56;;;17.93;96.31
70027;BME280;57506;50.092;15.804;2022-07-23T04:06:05;99053.19;;;18.03;94.78
70027;BME280;57506;50.092;15.804;2022-07-23T04:08:31;99046.19;;;18.07;92.14
70027;BME280;57506;50.092;15.804;2022-07-23T04:10:56;99035.38;;;18.12;94.79
70027;BME280;57506;50.092;15.804;2022-07-23T04:13:22;99050.75;;;18.35;90.96
70027;BME280;57506;50.092;15.804;2022-07-23T04:15:48;99047.88;;;18.41;90.38
70027;BME280;57506;50.092;15.804;2022-07-23T04:18:13;99040.19;;;18.55;90.48
70027;BME280;57506;50.092;15.804;2022-07-23T04:20:39;99039.94;;;18.73;87.69
70027;BME280;57506;50.092;15.804;2022-07-23T04:23:04;99026.72;;;18.82;87.44
70027;BME280;57506;50.092;15.804;2022-07-23T04:25:30;99028.25;;;18.95;88.96
70027;BME280;57506;50.092;15.804;2022-07-23T04:27:55;99025.88;;;19.03;91.84
70027;BME280;57506;50.092;15.804;2022-07-23T04:30:21;99025.72;;;19.10;90.72
70027;BME280;57506;50.092;15.804;2022-07-23T04:32:47;99012.13;;;19.15;88.50
70027;BME280;57506;50.092;15.804;2022-07-23T04:35:12;99021.78;;;19.44;88.02
70027;BME280;57506;50.092;15.804;2022-07-23T04:37:38;99009.25;;;19.70;90.78
70027;BME280;57506;50.092;15.804;2022-07-23T04:40:04;99002.66;;;19.93;87.28
70027;BME280;57506;50.092;15.804;2022-07-23T04:42:30;98980.00;;;20.03;88.70
70027;BME280;57506;50.092;15.804;2022-07-23T04:44:55;98994.13;;;20.21;85.66
70027;BME280;57506;50.092;15.804;2022-07-23T04:47:21;98987.06;;;20.31;87.05
70027;BME280;57506;50.092;15.804;2022-07-23T04:49:47;98988.97;;;20.62;85.62
70027;BME280;57506;50.092;15.804;2022-07-23T04:52:12;98976.84;;;20.90;79.67
70027;BME280;57506;50.092;15.804;2022-07-23T04:54:38;98960.97;;;20.97;78.42
70027;BME280;57506;50.092;15.804;2022-07-23T04:57:03;98947.06;;;21.14;78.53
70027;BME280;57506;50.092;15.804;2022-07-23T04:59:29;98953.16;;;21.21;77.79
70027;BME280;57506;50.092;15.804;2022-07-23T05:01:54;98949.88;;;21.29;78.90
70027;BME280;57506;50.092;15.804;2022-07-23T05:04:20;98963.63;;;21.39;78.05
70027;BME280;57506;50.092;15.804;2022-07-23T05:06:46;98959.53;;;21.47;77.40
70027;BME280;57506;50.092;15.804;2022-07-23T05:09:11;98958.44;;;21.48;77.05
70027;BME280;57506;50.092;15.804;2022-07-23T05:11:37;98952.72;;;21.54;78.57
70027;BME280;57506;50.092;15.804;2022-07-23T05:14:02;98971.13;;;21.74;76.18
70027;BME280;57506;50.092;15.804;2022-07-23T05:16:28;98962.34;;;21.92;75.41
70027;BME280;57506;50.092;15.804;2022-07-23T05:18:53;98967.34;;;22.01;76.01
70027;BME280;57506;50.092;15.804;2022-07-23T05:21:19;98970.34;;;22.14;74.71
70027;BME280;57506;50.092;15.804;2022-07-23T05:23:44;98955.81;;;22.14;75.11
70027;BME280;57506;50.092;15.804;2022-07-23T05:26:10;98975.59;;;22.21;75.32
70027;BME280;57506;50.092;15.804;2022-07-23T05:28:35;98978.56;;;22.24;74.15
70027;BME280;57506;50.092;15.804;2022-07-23T05:31:01;98976.97;;;22.23;75.88
70027;BME280;57506;50.092;15.804;2022-07-23T05:33:26;98992.03;;;22.51;73.19
70027;BME280;57506;50.092;15.804;2022-07-23T05:35:52;98980.50;;;22.49;73.38
70027;BME280;57506;50.092;15.804;2022-07-23T05:38:17;98990.91;;;22.57;71.91
70027;BME280;57506;50.092;15.804;2022-07-23T05:40:43;98989.53;;;22.60;69.40
70027;BME280;57506;50.092;15.804;2022-07-23T05:43:08;98996.09;;;22.74;71.95
70027;BME280;57506;50.092;15.804;2022-07-23T05:45:34;98999.16;;;22.78;72.74
70027;BME280;57506;50.092;15.804;2022-07-23T05:47:59;98991.44;;;22.80;73.62
70027;BME280;57506;50.092;15.804;2022-07-23T05:50:25;99004.06;;;22.91;73.71
70027;BME280;57506;50.092;15.804;2022-07-23T05:52:51;99000.44;;;23.06;70.24
70027;BME280;57506;50.092;15.804;2022-07-23T05:55:16;99010.31;;;23.17;71.52
70027;BME280;57506;50.092;15.804;2022-07-23T05:57:42;99009.50;;;23.21;70.34
70027;BME280;57506;50.092;15.804;2022-07-23T06:00:09;99012.75;;;23.23;68.42
70027;BME280;57506;50.092;15.804;2022-07-23T06:02:36;98998.72;;;23.25;69.05
70027;BME280;57506;50.092;15.804;2022-07-23T06:05:02;99009.38;;;23.42;68.42
70027;BME280;57506;50.092;15.804;2022-07-23T06:07:28;99004.13;;;23.55;68.32
70027;BME280;57506;50.092;15.804;2022-07-23T06:09:53;98997.69;;;23.75;65.92
70027;BME280;57506;50.092;15.804;2022-07-23T06:12:19;99012.72;;;23.88;67.44
70027;BME280;57506;50.092;15.804;2022-07-23T06:14:45;99012.34;;;24.04;69.65
70027;BME280;57506;50.092;15.804;2022-07-23T06:17:10;99010.56;;;24.29;67.92
70027;BME280;57506;50.092;15.804;2022-07-23T06:19:36;99007.63;;;24.49;67.90
70027;BME280;57506;50.092;15.804;2022-07-23T06:22:02;99033.53;;;24.48;66.82
70027;BME280;57506;50.092;15.804;2022-07-23T06:24:27;99042.78;;;24.28;65.20
70027;BME280;57506;50.092;15.804;2022-07-23T06:26:53;99031.97;;;23.93;67.18
70027;BME280;57506;50.092;15.804;2022-07-23T06:29:18;99026.69;;;24.01;66.85
70027;BME280;57506;50.092;15.804;2022-07-23T06:31:44;99043.22;;;24.01;67.58
70027;BME280;57506;50.092;15.804;2022-07-23T06:34:10;99046.66;;;23.78;67.78
70027;BME280;57506;50.092;15.804;2022-07-23T06:36:35;99045.34;;;23.65;67.45
70027;BME280;57506;50.092;15.804;2022-07-23T06:39:01;99051.63;;;23.71;67.06
70027;BME280;57506;50.092;15.804;2022-07-23T06:41:27;99036.00;;;23.66;67.92
70027;BME280;57506;50.092;15.804;2022-07-23T06:43:53;99036.47;;;23.79;67.47
70027;BME280;57506;50.092;15.804;2022-07-23T06:46:18;99036.16;;;23.85;67.06
70027;BME280;57506;50.092;15.804;2022-07-23T06:48:44;99031.16;;;23.87;66.49
70027;BME280;57506;50.092;15.804;2022-07-23T06:51:10;99027.38;;;23.83;67.37
70027;BME280;57506;50.092;15.804;2022-07-23T06:53:35;99018.81;;;23.85;66.68
70027;BME280;57506;50.092;15.804;2022-07-23T06:56:01;99025.94;;;23.91;66.97
70027;BME280;57506;50.092;15.804;2022-07-23T06:58:26;99037.53;;;24.22;64.18
70027;BME280;57506;50.092;15.804;2022-07-23T07:00:52;99026.00;;;24.25;65.54
70027;BME280;57506;50.092;15.804;2022-07-23T07:03:18;99039.88;;;24.49;65.01
70027;BME280;57506;50.092;15.804;2022-07-23T07:05:44;99035.19;;;24.49;64.33
70027;BME280;57506;50.092;15.804;2022-07-23T07:08:11;99027.50;;;24.46;63.39
70027;BME280;57506;50.092;15.804;2022-07-23T07:10:36;99025.28;;;24.48;64.24
70027;BME280;57506;50.092;15.804;2022-07-23T07:13:02;99024.88;;;24.60;63.64
70027;BME280;57506;50.092;15.804;2022-07-23T07:15:28;99013.81;;;24.65;64.90
70027;BME280;57506;50.092;15.804;2022-07-23T07:17:55;99020.72;;;24.91;63.23
70027;BME280;57506;50.092;15.804;2022-07-23T07:20:20;99017.66;;;24.98;61.20
70027;BME280;57506;50.092;15.804;2022-07-23T07:22:46;99017.38;;;24.99;60.67
70027;BME280;57506;50.092;15.804;2022-07-23T07:25:12;99031.81;;;25.15;62.17
70027;BME280;57506;50.092;15.804;2022-07-23T07:27:37;99037.59;;;25.14;61.67
70027;BME280;57506;50.092;15.804;2022-07-23T07:30:04;99022.22;;;25.07;61.87
70027;BME280;57506;50.092;15.804;2022-07-23T07:32:30;99028.81;;;25.12;62.42
70027;BME280;57506;50.092;15.804;2022-07-23T07:34:58;99034.47;;;25.20;62.51
70027;BME280;57506;50.092;15.804;2022-07-23T07:37:23;99043.41;;;25.36;60.84
70027;BME280;57506;50.092;15.804;2022-07-23T07:39:49;99048.88;;;25.41;60.42
70027;BME280;57506;50.092;15.804;2022-07-23T07:42:14;99046.34;;;25.44;60.75
70027;BME280;57506;50.092;15.804;2022-07-23T07:44:40;99049.78;;;25.79;60.66
70027;BME280;57506;50.092;15.804;2022-07-23T07:47:06;99050.47;;;26.08;56.62
70027;BME280;57506;50.092;15.804;2022-07-23T07:49:33;99050.03;;;26.39;55.78
70027;BME280;57506;50.092;15.804;2022-07-23T07:51:58;99048.34;;;26.57;55.49
70027;BME280;57506;50.092;15.804;2022-07-23T07:54:24;99055.69;;;26.80;55.80
70027;BME280;57506;50.092;15.804;2022-07-23T07:56:50;99047.88;;;27.01;55.60
70027;BME280;57506;50.092;15.804;2022-07-23T07:59:15;99046.88;;;27.10;55.39
70027;BME280;57506;50.092;15.804;2022-07-23T08:01:41;99047.19;;;27.23;55.00
70027;BME280;57506;50.092;15.804;2022-07-23T08:04:07;99033.03;;;27.24;52.51
70027;BME280;57506;50.092;15.804;2022-07-23T08:06:33;99040.91;;;27.44;53.82
70027;BME280;57506;50.092;15.804;2022-07-23T08:08:58;99042.97;;;27.52;53.34
70027;BME280;57506;50.092;15.804;2022-07-23T08:11:24;99052.09;;;27.80;51.36
70027;BME280;57506;50.092;15.804;2022-07-23T08:13:51;99050.44;;;27.79;52.17
70027;BME280;57506;50.092;15.804;2022-07-23T08:16:17;99044.66;;;28.03;53.23
70027;BME280;57506;50.092;15.804;2022-07-23T08:18:42;99045.28;;;28.00;51.33
70027;BME280;57506;50.092;15.804;2022-07-23T08:21:09;99041.53;;;27.82;52.24
70027;BME280;57506;50.092;15.804;2022-07-23T08:23:34;99043.03;;;28.02;50.96
70027;BME280;57506;50.092;15.804;2022-07-23T08:26:00;99053.41;;;28.33;51.03
70027;BME280;57506;50.092;15.804;2022-07-23T08:28:26;99042.09;;;27.93;53.27
70027;BME280;57506;50.092;15.804;2022-07-23T08:30:52;99054.75;;;28.35;52.09
70027;BME280;57506;50.092;15.804;2022-07-23T08:33:18;99057.97;;;28.15;51.74
70027;BME280;57506;50.092;15.804;2022-07-23T08:35:49;99053.25;;;28.15;51.74
70027;BME280;57506;50.092;15.804;2022-07-23T08:38:17;99065.22;;;27.89;49.11
70027;BME280;57506;50.092;15.804;2022-07-23T08:40:50;99063.41;;;27.43;50.95
70027;BME280;57506;50.092;15.804;2022-07-23T08:43:21;99073.38;;;27.11;50.19
70027;BME280;57506;50.092;15.804;2022-07-23T08:45:49;99078.53;;;26.86;50.40
70027;BME280;57506;50.092;15.804;2022-07-23T08:48:17;99075.97;;;26.75;51.08
70027;BME280;57506;50.092;15.804;2022-07-23T08:50:46;99063.22;;;26.61;51.63
70027;BME280;57506;50.092;15.804;2022-07-23T08:53:13;99069.84;;;26.78;51.17
70027;BME280;57506;50.092;15.804;2022-07-23T08:55:40;99070.44;;;26.75;50.98
70027;BME280;57506;50.092;15.804;2022-07-23T08:58:08;99071.03;;;26.72;52.86
70027;BME280;57506;50.092;15.804;2022-07-23T09:00:34;99077.69;;;26.71;51.94
70027;BME280;57506;50.092;15.804;2022-07-23T09:03:00;99076.97;;;26.79;52.72
70027;BME280;57506;50.092;15.804;2022-07-23T09:05:25;99078.81;;;26.70;52.39
70027;BME280;57506;50.092;15.804;2022-07-23T09:10:53;99077.72;;;26.53;51.18
70027;BME280;57506;50.092;15.804;2022-07-23T09:13:35;99074.66;;;26.54;52.09
70027;BME280;57506;50.092;15.804;2022-07-23T09:16:12;99062.50;;;26.36;52.88
70027;BME280;57506;50.092;15.804;2022-07-23T09:21:26;99071.69;;;26.13;52.56
70027;BME280;57506;50.092;15.804;2022-07-23T09:24:09;99076.50;;;26.02;53.07
70027;BME280;57506;50.092;15.804;2022-07-23T09:26:37;99086.31;;;26.13;54.09
70027;BME280;57506;50.092;15.804;2022-07-23T09:31:50;99074.44;;;26.32;53.95
70027;BME280;57506;50.092;15.804;2022-07-23T09:34:30;99088.03;;;26.28;53.73
70027;BME280;57506;50.092;15.804;2022-07-23T09:37:08;99088.47;;;26.35;53.57
70027;BME280;57506;50.092;15.804;2022-07-23T09:39:35;99088.72;;;26.39;54.95
70027;BME280;57506;50.092;15.804;2022-07-23T09:42:23;99089.00;;;26.37;54.52
70027;BME280;57506;50.092;15.804;2022-07-23T09:44:51;99092.50;;;26.24;53.64
70027;BME280;57506;50.092;15.804;2022-07-23T09:47:18;99103.59;;;26.00;53.75
70027;BME280;57506;50.092;15.804;2022-07-23T09:50:07;99105.97;;;25.88;55.24
70027;BME280;57506;50.092;15.804;2022-07-23T09:52:48;99111.13;;;25.76;55.24
70027;BME280;57506;50.092;15.804;2022-07-23T09:55:15;99117.66;;;25.56;57.68
70027;BME280;57506;50.092;15.804;2022-07-23T09:57:41;99124.13;;;25.47;57.20
70027;BME280;57506;50.092;15.804;2022-07-23T10:00:10;99124.97;;;25.18;59.40
70027;BME280;57506;50.092;15.804;2022-07-23T10:02:36;99120.28;;;24.85;61.02
70027;BME280;57506;50.092;15.804;2022-07-23T10:05:03;99126.00;;;24.59;64.87
70027;BME280;57506;50.092;15.804;2022-07-23T10:07:32;99117.13;;;24.33;67.39
70027;BME280;57506;50.092;15.804;2022-07-23T10:09:59;99125.41;;;24.23;68.96
70027;BME280;57506;50.092;15.804;2022-07-23T10:12:25;99127.91;;;24.25;72.02
70027;BME280;57506;50.092;15.804;2022-07-23T10:14:56;99135.09;;;24.16;72.31
70027;BME280;57506;50.092;15.804;2022-07-23T10:17:22;99122.72;;;24.08;72.97
70027;BME280;57506;50.092;15.804;2022-07-23T10:19:48;99128.19;;;24.18;75.10
70027;BME280;57506;50.092;15.804;2022-07-23T10:22:25;99136.06;;;24.40;73.63
70027;BME280;57506;50.092;15.804;2022-07-23T10:30:36;99097.88;;;25.25;79.74
70027;BME280;57506;50.092;15.804;2022-07-23T10:33:45;99094.59;;;26.32;77.76
70027;BME280;57506;50.092;15.804;2022-07-23T10:36:51;99075.00;;;26.99;61.55
70027;BME280;57506;50.092;15.804;2022-07-23T10:39:24;99086.97;;;27.68;57.35
70027;BME280;57506;50.092;15.804;2022-07-23T10:41:51;99074.44;;;27.84;53.98
70027;BME280;57506;50.092;15.804;2022-07-23T10:44:20;99087.78;;;27.82;62.53
70027;BME280;57506;50.092;15.804;2022-07-23T10:47:01;99077.72;;;28.00;62.82
70027;BME280;57506;50.092;15.804;2022-07-23T10:49:29;99072.72;;;28.38;59.43
70027;BME280;57506;50.092;15.804;2022-07-23T10:57:07;99067.44;;;28.72;55.54
70027;BME280;57506;50.092;15.804;2022-07-23T11:02:48;99072.00;;;28.77;55.47
70027;BME280;57506;50.092;15.804;2022-07-23T11:05:19;99061.94;;;29.03;52.19
70027;BME280;57506;50.092;15.804;2022-07-23T11:10:40;99061.56;;;29.67;51.70
70027;BME280;57506;50.092;15.804;2022-07-23T11:23:59;99049.50;;;29.01;50.40
70027;BME280;57506;50.092;15.804;2022-07-23T11:34:31;99029.16;;;28.83;45.11
70027;BME280;57506;50.092;15.804;2022-07-23T11:36:58;99017.88;;;28.79;46.94
70027;BME280;57506;50.092;15.804;2022-07-23T11:39:26;99014.25;;;28.79;43.22
70027;BME280;57506;50.092;15.804;2022-07-23T11:41:52;99024.81;;;28.68;46.15
70027;BME280;57506;50.092;15.804;2022-07-23T11:44:29;99030.81;;;28.84;46.29
70027;BME280;57506;50.092;15.804;2022-07-23T11:46:59;99034.19;;;29.03;46.04
70027;BME280;57506;50.092;15.804;2022-07-23T11:49:25;99029.19;;;28.92;43.86
70027;BME280;57506;50.092;15.804;2022-07-23T11:52:09;99022.34;;;28.89;42.66
70027;BME280;57506;50.092;15.804;2022-07-23T11:54:37;99023.41;;;29.41;43.78
70027;BME280;57506;50.092;15.804;2022-07-23T11:57:11;99015.34;;;29.31;41.16
70027;BME280;57506;50.092;15.804;2022-07-23T11:59:38;99011.66;;;29.44;44.11
70027;BME280;57506;50.092;15.804;2022-07-23T12:02:05;99008.09;;;29.52;40.06
70027;BME280;57506;50.092;15.804;2022-07-23T12:04:42;98989.63;;;29.56;42.97
70027;BME280;57506;50.092;15.804;2022-07-23T12:07:34;99003.97;;;29.41;41.69
70027;BME280;57506;50.092;15.804;2022-07-23T12:10:14;99002.75;;;29.25;43.24
70027;BME280;57506;50.092;15.804;2022-07-23T12:12:43;99006.09;;;29.44;42.86
70027;BME280;57506;50.092;15.804;2022-07-23T12:15:11;98985.41;;;29.68;42.88
70027;BME280;57506;50.092;15.804;2022-07-23T12:17:39;98998.72;;;30.14;42.01
70027;BME280;57506;50.092;15.804;2022-07-23T12:20:07;98975.47;;;30.36;40.35
70027;BME280;57506;50.092;15.804;2022-07-23T12:22:57;98971.56;;;31.01;39.43
70027;BME280;57506;50.092;15.804;2022-07-23T12:25:31;98979.28;;;30.86;41.16
70027;BME280;57506;50.092;15.804;2022-07-23T12:28:04;98975.22;;;31.30;39.48
70027;BME280;57506;50.092;15.804;2022-07-23T12:30:49;98984.47;;;31.14;39.24
70027;BME280;57506;50.092;15.804;2022-07-23T12:33:26;98984.78;;;31.04;41.29
70027;BME280;57506;50.092;15.804;2022-07-23T12:35:54;98982.94;;;30.78;40.46
70027;BME280;57506;50.092;15.804;2022-07-23T12:38:22;98974.47;;;30.49;41.03
70027;BME280;57506;50.092;15.804;2022-07-23T12:40:50;98984.78;;;30.66;40.25
70027;BME280;57506;50.092;15.804;2022-07-23T12:43:23;98993.66;;;30.97;41.61
70027;BME280;57506;50.092;15.804;2022-07-23T12:45:54;98981.94;;;30.74;39.30
70027;BME280;57506;50.092;15.804;2022-07-23T12:48:25;98981.00;;;31.08;39.44
70027;BME280;57506;50.092;15.804;2022-07-23T12:53:22;98981.50;;;31.02;39.56
70027;BME280;57506;50.092;15.804;2022-07-23T12:55:48;98979.88;;;31.47;40.37
70027;BME280;57506;50.092;15.804;2022-07-23T12:58:19;98968.50;;;31.52;37.66
70027;BME280;57506;50.092;15.804;2022-07-23T13:01:04;98978.31;;;31.29;38.95
70027;BME280;57506;50.092;15.804;2022-07-23T13:03:40;98986.59;;;31.46;39.25
70027;BME280;57506;50.092;15.804;2022-07-23T13:06:08;98972.53;;;31.34;39.19
70027;BME280;57506;50.092;15.804;2022-07-23T13:08:36;98965.06;;;31.26;39.93
70027;BME280;57506;50.092;15.804;2022-07-23T13:11:03;98972.44;;;31.51;40.05
70027;BME280;57506;50.092;15.804;2022-07-23T13:13:32;98983.16;;;31.70;40.40
70027;BME280;57506;50.092;15.804;2022-07-23T13:15:59;98984.06;;;31.83;39.73
70027;BME280;57506;50.092;15.804;2022-07-23T13:18:26;98984.59;;;32.18;43.28
70027;BME280;57506;50.092;15.804;2022-07-23T13:20:52;98974.34;;;32.10;40.08
70027;BME280;57506;50.092;15.804;2022-07-23T13:23:18;98987.59;;;32.33;38.17
70027;BME280;57506;50.092;15.804;2022-07-23T13:25:45;98980.13;;;31.84;38.02
70027;BME280;57506;50.092;15.804;2022-07-23T13:28:11;98972.06;;;31.61;38.08
70027;BME280;57506;50.092;15.804;2022-07-23T13:30:38;98979.50;;;31.19;38.32
70027;BME280;57506;50.092;15.804;2022-07-23T13:33:04;98981.38;;;30.98;39.08
70027;BME280;57506;50.092;15.804;2022-07-23T13:35:31;98976.03;;;30.84;39.49
70027;BME280;57506;50.092;15.804;2022-07-23T13:38:07;98973.47;;;30.62;40.16